Pasig, Philippines
Current Conditions -  °F | °C
As of 4:00 PM on Saturday 25 Oct 2014 (Local Time) from RPLL Reporting Station
Few Clouds Few Clouds  
Wind Chill: 90°   Ceiling: Unl
Heat Index: 96°   Visibility: 6mi
Dew Point: 72°   Wind: 12mph
Humidity: 55%   Direction: 120°ESE
Pressure: 29.83"   Gusts: NA
Location:  14.58°N, 121.08°E
Report Text: RPLL 250800Z 12010KT 050V160 9999 FEW025 32/22 Q1010 NOSIG RMK A2983
Loading
Personal Weather Stations






























Interactive Weather Map
Tropical Storm Tracking
New forecast layout! Learn more

10-Day Weather Forecast

Advertisements
Track Severe Weather on mobile